Time;durP1;ratioP1;P1;durP2;ratioP2;P2;SDS_P1;SDS_P2;PMS_P1;PMS_P2;Temp;Humidity;BMP_temperature;BMP_pressure;BME280_temperature;BME280_humidity;BME280_pressure;Samples;Min_cycle;Max_cycle;Signal;HPM_P1;HPM_P2
2021/01/20 00:01:56;;;;;;;12.77;7.60;;;0.00;99.90;;;;;;4934133;29;20213;-87
2021/01/20 00:04:22;;;;;;;12.47;8.23;;;0.00;99.90;;;;;;4939085;29;20209;-86
2021/01/20 00:06:49;;;;;;;13.50;8.80;;;0.00;99.90;;;;;;4923833;29;21246;-86
2021/01/20 00:09:15;;;;;;;10.17;7.80;;;-0.10;99.90;;;;;;4933954;29;20198;-85
2021/01/20 00:11:41;;;;;;;11.13;8.63;;;-0.10;99.90;;;;;;4935588;29;20428;-83
2021/01/20 00:47:49;;;;;;;11.23;6.97;;;0.00;99.90;;;;;;4929220;29;20438;-83
2021/01/20 00:50:14;;;;;;;9.07;6.50;;;0.00;99.90;;;;;;4924903;29;20446;-83
2021/01/20 00:52:43;;;;;;;9.37;6.80;;;0.00;99.90;;;;;;4929433;29;20337;-82
2021/01/20 00:55:10;;;;;;;12.80;7.00;;;0.00;99.90;;;;;;4930879;29;20190;-83
2021/01/20 00:57:36;;;;;;;9.23;7.07;;;0.10;99.90;;;;;;4929696;29;20489;-84
2021/01/20 01:43:50;;;;;;;10.13;6.77;;;-0.20;99.90;;;;;;4929439;29;20531;-83
2021/01/20 01:46:16;;;;;;;10.23;6.40;;;-0.10;99.90;;;;;;4931909;29;20474;-81
2021/01/20 01:48:42;;;;;;;9.50;6.17;;;-0.10;99.90;;;;;;4931892;29;20209;-81
2021/01/20 01:51:11;;;;;;;11.20;5.97;;;-0.10;99.90;;;;;;4927518;29;20446;-81
2021/01/20 01:53:36;;;;;;;10.00;7.43;;;0.00;99.90;;;;;;4933543;29;20435;-82
2021/01/20 01:56:02;;;;;;;11.23;7.97;;;0.10;99.90;;;;;;4930673;29;20456;-82
2021/01/20 01:58:28;;;;;;;8.10;6.33;;;0.10;99.90;;;;;;4932583;29;20217;-82
2021/01/20 02:00:55;;;;;;;10.23;6.07;;;0.30;99.90;;;;;;4919457;29;20242;-83
2021/01/20 02:03:21;;;;;;;10.10;7.30;;;0.40;99.90;;;;;;4931081;29;20814;-84
2021/01/20 02:05:47;;;;;;;11.90;6.97;;;0.40;99.90;;;;;;4935656;29;20519;-82
2021/01/20 02:08:13;;;;;;;13.63;7.17;;;0.40;99.90;;;;;;4932187;29;20277;-83
2021/01/20 02:10:39;;;;;;;9.33;7.40;;;0.50;99.90;;;;;;4933174;29;20278;-81
2021/01/20 02:13:46;;;;;;;7.50;6.60;;;0.60;99.90;;;;;;4931027;29;21011;-84
2021/01/20 02:16:40;;;;;;;10.20;6.60;;;0.70;99.90;;;;;;4879367;29;20948;-82
2021/01/20 02:19:10;;;;;;;14.90;7.83;;;0.70;99.90;;;;;;4929689;28;20446;-82
2021/01/20 02:21:54;;;;;;;8.57;5.97;;;0.70;99.90;;;;;;4928585;29;20645;-81
2021/01/20 02:24:30;;;;;;;10.97;7.17;;;0.60;99.90;;;;;;4931974;29;20445;-83
2021/01/20 02:27:02;;;;;;;11.10;7.07;;;0.60;99.90;;;;;;4930985;29;20444;-82
2021/01/20 02:29:58;;;;;;;9.30;6.73;;;0.60;99.90;;;;;;4913944;29;20557;-81
2021/01/20 02:32:28;;;;;;;10.83;7.30;;;0.60;99.90;;;;;;4936060;29;20445;-81
2021/01/20 02:34:57;;;;;;;10.37;6.13;;;0.50;99.90;;;;;;4915657;29;20525;-83
2021/01/20 02:37:27;;;;;;;7.57;6.73;;;0.40;99.90;;;;;;4918712;29;20486;-81
2021/01/20 02:39:53;;;;;;;8.13;5.70;;;0.40;99.90;;;;;;4929791;29;20471;-83
2021/01/20 02:42:19;;;;;;;9.13;6.67;;;0.40;99.90;;;;;;4917942;29;20445;-82
2021/01/20 02:44:45;;;;;;;7.53;5.23;;;0.40;99.90;;;;;;4917308;29;20474;-83
2021/01/20 02:47:11;;;;;;;8.67;5.97;;;0.40;99.90;;;;;;4932373;29;20197;-83
2021/01/20 02:49:37;;;;;;;7.40;6.57;;;0.30;99.90;;;;;;4917028;29;20250;-84
2021/01/20 02:52:18;;;;;;;7.63;5.53;;;0.20;99.90;;;;;;4933725;29;20436;-84
2021/01/20 02:54:46;;;;;;;10.80;5.83;;;0.20;99.90;;;;;;4950204;28;20470;-82
2021/01/20 02:57:13;;;;;;;7.00;5.50;;;0.20;99.90;;;;;;4917742;29;20439;-84
2021/01/20 02:59:43;;;;;;;9.93;6.80;;;0.20;99.90;;;;;;4915798;29;21075;-82
2021/01/20 03:02:12;;;;;;;7.03;5.47;;;0.20;99.90;;;;;;4922216;29;20437;-81
2021/01/20 03:04:48;;;;;;;7.03;5.70;;;0.20;99.90;;;;;;4930182;29;20858;-82
2021/01/20 03:07:17;;;;;;;7.50;6.77;;;0.30;99.90;;;;;;4949243;28;20588;-80
2021/01/20 03:09:43;;;;;;;6.87;5.83;;;0.30;99.90;;;;;;4932737;28;20436;-83
2021/01/20 03:12:09;;;;;;;7.37;4.87;;;0.20;99.90;;;;;;4918511;29;20446;-83
2021/01/20 03:14:37;;;;;;;6.90;5.33;;;0.30;99.90;;;;;;4929529;29;20577;-81
2021/01/20 03:17:03;;;;;;;7.10;5.50;;;0.30;99.90;;;;;;4937129;29;20437;-83
2021/01/20 03:19:28;;;;;;;8.90;6.07;;;0.20;99.90;;;;;;4932052;29;20487;-83
2021/01/20 03:21:54;;;;;;;6.87;5.30;;;0.20;99.90;;;;;;4917988;29;20201;-80
2021/01/20 03:24:20;;;;;;;8.70;5.27;;;0.10;99.90;;;;;;4915991;29;20217;-83
2021/01/20 03:26:46;;;;;;;6.60;5.17;;;0.20;99.90;;;;;;4935190;29;20200;-82
2021/01/20 03:29:15;;;;;;;7.03;6.07;;;0.10;99.90;;;;;;4915857;29;20434;-82
2021/01/20 03:31:40;;;;;;;9.73;5.90;;;0.10;99.90;;;;;;4934298;29;20279;-82
2021/01/20 03:34:06;;;;;;;6.70;5.50;;;0.10;99.90;;;;;;4927359;28;20545;-82
2021/01/20 03:36:35;;;;;;;10.40;5.33;;;0.10;99.90;;;;;;4916107;29;20805;-82
2021/01/20 03:39:01;;;;;;;7.10;5.40;;;0.10;99.90;;;;;;4933225;29;20196;-83
2021/01/20 03:41:26;;;;;;;5.97;5.00;;;0.10;99.90;;;;;;4932672;29;20440;-82
2021/01/20 03:43:52;;;;;;;6.93;4.70;;;0.20;99.90;;;;;;4916267;29;20282;-85
2021/01/20 03:46:18;;;;;;;7.87;5.40;;;0.30;99.90;;;;;;4929961;29;20219;-82
2021/01/20 03:48:43;;;;;;;11.73;6.67;;;0.20;99.90;;;;;;4932517;29;20265;-85
2021/01/20 03:51:09;;;;;;;7.10;5.30;;;0.30;99.90;;;;;;4917449;29;20722;-81
2021/01/20 03:53:35;;;;;;;10.60;5.50;;;0.30;99.90;;;;;;4930649;29;20229;-82
2021/01/20 03:56:00;;;;;;;7.30;4.83;;;0.40;99.90;;;;;;4934676;29;20203;-84
2021/01/20 03:58:26;;;;;;;6.30;5.10;;;0.40;99.90;;;;;;4935787;28;20397;-83
2021/01/20 04:00:52;;;;;;;6.40;4.97;;;0.50;99.90;;;;;;4918951;29;20292;-84
2021/01/20 04:03:17;;;;;;;8.00;5.37;;;0.50;99.90;;;;;;4935150;29;20221;-83
2021/01/20 04:05:43;;;;;;;5.63;4.77;;;0.40;99.90;;;;;;4932708;29;20192;-84
2021/01/20 04:08:09;;;;;;;8.30;4.50;;;0.40;99.90;;;;;;4920694;29;20222;-84
2021/01/20 04:10:34;;;;;;;5.37;4.80;;;0.40;99.90;;;;;;4931124;29;20216;-82
2021/01/20 04:13:00;;;;;;;6.50;5.47;;;0.50;99.90;;;;;;4931173;29;20211;-82
2021/01/20 04:15:26;;;;;;;6.10;4.67;;;0.50;99.90;;;;;;4914169;29;20269;-80
2021/01/20 04:17:51;;;;;;;6.27;5.60;;;0.50;99.90;;;;;;4934962;29;20721;-83
2021/01/20 04:20:17;;;;;;;5.70;4.57;;;0.40;99.90;;;;;;4918496;29;20225;-83
2021/01/20 04:22:42;;;;;;;8.43;5.20;;;0.30;99.90;;;;;;4925077;29;20564;-83
2021/01/20 04:25:10;;;;;;;5.47;4.17;;;0.30;99.90;;;;;;4932852;29;20205;-82
2021/01/20 04:27:36;;;;;;;6.33;5.00;;;0.20;99.90;;;;;;4934238;29;20183;-83
2021/01/20 04:30:02;;;;;;;6.90;5.17;;;0.20;99.90;;;;;;4934891;29;20453;-81
2021/01/20 04:32:28;;;;;;;5.37;4.50;;;0.30;99.90;;;;;;4935477;29;20202;-80
2021/01/20 04:34:54;;;;;;;9.10;4.70;;;0.20;99.90;;;;;;4932585;29;20433;-81
2021/01/20 04:37:19;;;;;;;5.63;4.60;;;0.20;99.90;;;;;;4932538;29;20199;-80
2021/01/20 04:39:45;;;;;;;5.03;4.40;;;0.20;99.90;;;;;;4934102;29;20222;-82
2021/01/20 04:42:11;;;;;;;4.80;4.30;;;0.20;99.90;;;;;;4931991;29;20202;-81
2021/01/20 04:44:36;;;;;;;6.83;5.60;;;0.30;99.90;;;;;;4917413;29;20219;-84
2021/01/20 04:47:04;;;;;;;6.23;4.63;;;0.30;99.90;;;;;;4936142;29;20185;-86
2021/01/20 04:49:34;;;;;;;7.10;4.77;;;0.40;99.90;;;;;;4933034;29;20682;-80
2021/01/20 04:52:01;;;;;;;8.50;5.20;;;0.40;99.90;;;;;;4917797;29;20825;-80
2021/01/20 04:54:30;;;;;;;8.47;4.70;;;0.50;99.90;;;;;;4934792;29;20483;-84
2021/01/20 04:56:56;;;;;;;7.37;5.10;;;0.60;99.90;;;;;;4920703;29;20440;-82
2021/01/20 04:59:27;;;;;;;6.57;5.13;;;0.60;99.90;;;;;;4936845;29;20473;-84
2021/01/20 05:01:53;;;;;;;5.63;5.13;;;0.80;99.90;;;;;;4933825;29;20735;-84
2021/01/20 05:04:19;;;;;;;7.63;5.47;;;0.80;99.90;;;;;;4920999;29;20489;-85
2021/01/20 05:06:45;;;;;;;7.40;4.80;;;0.80;99.90;;;;;;4933873;29;20431;-84
2021/01/20 05:09:11;;;;;;;8.57;5.73;;;0.90;99.90;;;;;;4935730;28;20475;-83
2021/01/20 05:11:44;;;;;;;7.97;5.03;;;1.00;99.90;;;;;;4931652;29;20202;-83
2021/01/20 05:14:15;;;;;;;5.80;4.90;;;1.00;99.90;;;;;;4952512;28;20198;-84
2021/01/20 05:16:43;;;;;;;4.30;3.90;;;1.00;99.90;;;;;;4930605;29;20983;-81
2021/01/20 05:19:14;;;;;;;8.13;5.37;;;1.10;99.90;;;;;;4929882;29;20450;-83
2021/01/20 05:22:09;;;;;;;5.07;4.10;;;1.00;99.90;;;;;;4933463;29;20968;-83
2021/01/20 05:24:35;;;;;;;7.87;5.00;;;1.00;99.90;;;;;;4931365;29;20449;-81
2021/01/20 05:27:02;;;;;;;7.07;4.50;;;1.10;99.90;;;;;;4933591;29;20435;-82
2021/01/20 05:29:28;;;;;;;7.20;5.20;;;1.10;99.90;;;;;;4921511;29;20431;-83
2021/01/20 05:31:54;;;;;;;6.20;5.07;;;1.20;99.90;;;;;;4918254;29;20472;-84
2021/01/20 05:34:27;;;;;;;5.17;4.50;;;1.20;99.90;;;;;;4935453;29;20482;-83
2021/01/20 05:37:02;;;;;;;5.90;4.13;;;1.20;99.90;;;;;;4947698;28;20205;-83
2021/01/20 05:39:28;;;;;;;6.60;4.80;;;1.20;99.90;;;;;;4928932;29;20591;-84
2021/01/20 05:42:08;;;;;;;12.30;5.43;;;1.30;99.90;;;;;;4932609;29;20937;-81
2021/01/20 05:44:35;;;;;;;8.97;4.30;;;1.40;99.90;;;;;;4930447;29;20278;-82
2021/01/20 05:47:29;;;;;;;6.13;4.93;;;1.30;99.90;;;;;;4933480;29;20543;-84
2021/01/20 05:50:08;;;;;;;8.63;4.70;;;1.50;99.90;;;;;;4929023;28;20479;-82
2021/01/20 05:52:34;;;;;;;8.73;5.23;;;1.50;99.90;;;;;;4932180;29;20427;-82
2021/01/20 05:55:20;;;;;;;4.60;3.50;;;1.50;99.90;;;;;;4913709;29;20460;-81
2021/01/20 05:57:51;;;;;;;5.90;4.80;;;1.60;99.90;;;;;;4929509;29;20441;-82
2021/01/20 06:00:17;;;;;;;6.63;5.20;;;1.70;99.90;;;;;;4930150;29;20828;-83
2021/01/20 06:02:43;;;;;;;12.20;5.50;;;1.70;99.90;;;;;;4928373;29;20458;-83
2021/01/20 06:05:11;;;;;;;6.70;4.73;;;1.70;99.90;;;;;;4913875;29;20439;-83
2021/01/20 06:07:37;;;;;;;7.97;4.93;;;1.70;99.90;;;;;;4930980;28;20428;-85
2021/01/20 06:10:04;;;;;;;10.37;6.20;;;1.60;99.90;;;;;;4928616;29;20825;-84
2021/01/20 06:12:30;;;;;;;7.10;5.03;;;1.60;99.90;;;;;;4931140;29;20519;-85
2021/01/20 06:14:57;;;;;;;6.23;5.40;;;1.60;99.90;;;;;;4926742;29;20524;-82
2021/01/20 06:17:43;;;;;;;4.93;4.40;;;1.60;99.90;;;;;;4917158;29;20235;-83
2021/01/20 06:20:11;;;;;;;8.07;6.17;;;1.50;99.90;;;;;;4931163;29;20512;-83
2021/01/20 06:22:46;;;;;;;6.90;5.37;;;1.40;99.90;;;;;;4926756;29;20537;-81
2021/01/20 06:25:18;;;;;;;6.70;4.60;;;1.40;99.90;;;;;;4928912;29;20450;-83
2021/01/20 06:27:54;;;;;;;5.20;4.43;;;1.50;99.90;;;;;;4909549;29;20948;-82
2021/01/20 06:30:28;;;;;;;8.73;5.40;;;1.50;99.90;;;;;;4930512;29;20964;-83
2021/01/20 06:32:56;;;;;;;7.87;4.60;;;1.50;99.90;;;;;;4929783;29;20529;-80
2021/01/20 06:35:35;;;;;;;4.90;4.37;;;1.40;99.90;;;;;;4909353;29;20442;-82
2021/01/20 06:38:00;;;;;;;10.13;5.40;;;1.40;99.90;;;;;;4926553;29;20451;-85
2021/01/20 06:40:26;;;;;;;4.33;3.57;;;1.40;99.90;;;;;;4923810;29;20503;-84
2021/01/20 06:42:53;;;;;;;8.93;5.60;;;1.50;99.90;;;;;;4924684;29;20208;-85
2021/01/20 06:45:19;;;;;;;6.60;4.17;;;1.60;99.90;;;;;;4921448;29;20199;-81
2021/01/20 06:48:03;;;;;;;7.13;4.50;;;1.70;99.90;;;;;;4923116;29;20430;-83
2021/01/20 06:50:30;;;;;;;10.37;4.70;;;1.80;99.90;;;;;;4922906;29;20953;-81
2021/01/20 06:53:06;;;;;;;7.60;5.20;;;1.80;99.90;;;;;;4925875;29;20482;-84
2021/01/20 06:55:37;;;;;;;5.93;4.57;;;1.80;99.90;;;;;;4924582;29;20436;-84
2021/01/20 06:58:26;;;;;;;7.77;5.33;;;1.70;99.90;;;;;;4926334;29;20534;-82
2021/01/20 07:01:10;;;;;;;6.53;5.10;;;1.80;99.90;;;;;;4923480;29;20842;-83
2021/01/20 07:03:48;;;;;;;5.70;4.63;;;1.80;99.90;;;;;;4926534;29;21090;-82
2021/01/20 07:06:32;;;;;;;7.90;4.77;;;1.80;99.90;;;;;;4928767;29;20418;-82
2021/01/20 07:08:59;;;;;;;7.83;5.00;;;1.80;99.90;;;;;;4924700;29;20493;-82
2021/01/20 07:11:24;;;;;;;6.10;4.87;;;1.80;99.90;;;;;;4924390;29;20444;-84
2021/01/20 07:13:50;;;;;;;9.30;5.53;;;1.90;99.90;;;;;;4926325;29;20487;-83
2021/01/20 07:16:17;;;;;;;7.40;5.40;;;1.90;99.90;;;;;;4925716;29;20196;-83
2021/01/20 07:18:48;;;;;;;8.00;4.97;;;1.90;99.90;;;;;;4912557;29;20955;-84
2021/01/20 07:21:14;;;;;;;6.33;5.70;;;1.90;99.90;;;;;;4925271;29;20488;-83
2021/01/20 07:23:40;;;;;;;7.77;5.53;;;2.00;99.90;;;;;;4912197;29;20570;-84
2021/01/20 07:26:06;;;;;;;10.60;5.40;;;2.00;99.90;;;;;;4924248;29;20498;-84
2021/01/20 07:28:34;;;;;;;8.77;5.73;;;2.10;99.90;;;;;;4930294;29;20629;-86
2021/01/20 07:31:08;;;;;;;8.13;6.40;;;2.20;99.90;;;;;;4921329;29;20875;-84
2021/01/20 07:33:34;;;;;;;4.83;4.37;;;2.20;99.90;;;;;;4924807;29;20475;-83
2021/01/20 07:36:13;;;;;;;5.90;5.30;;;2.30;99.90;;;;;;4922013;29;20846;-84
2021/01/20 07:38:39;;;;;;;8.73;5.43;;;2.30;99.90;;;;;;4943753;28;20958;-82
2021/01/20 07:41:21;;;;;;;6.30;4.80;;;2.40;99.90;;;;;;4931521;29;20467;-86
2021/01/20 07:43:47;;;;;;;6.33;4.67;;;2.50;99.90;;;;;;4929136;29;20802;-84
2021/01/20 07:46:14;;;;;;;6.93;4.80;;;2.50;99.90;;;;;;4932999;29;20987;-86
2021/01/20 07:48:40;;;;;;;7.00;4.83;;;2.60;99.90;;;;;;4925301;29;20543;-87
2021/01/20 07:51:06;;;;;;;9.33;5.40;;;2.60;99.90;;;;;;4918023;29;20497;-87
2021/01/20 07:53:31;;;;;;;6.10;4.40;;;2.70;99.90;;;;;;4927295;29;20220;-84
2021/01/20 07:55:57;;;;;;;10.40;4.97;;;2.80;99.90;;;;;;4917770;29;20204;-87
2021/01/20 07:58:27;;;;;;;6.07;4.70;;;2.90;99.90;;;;;;4912694;29;20207;-87
2021/01/20 08:00:53;;;;;;;8.60;4.93;;;2.90;99.90;;;;;;4923219;29;20238;-87
2021/01/20 08:03:36;;;;;;;7.20;4.63;;;3.00;99.90;;;;;;4929099;29;20465;-87
2021/01/20 08:06:07;;;;;;;7.00;5.10;;;3.00;99.90;;;;;;4918671;29;20498;-88
2021/01/20 08:08:48;;;;;;;11.27;5.63;;;3.10;99.90;;;;;;4949305;28;20435;-86
2021/01/20 08:11:17;;;;;;;9.60;6.03;;;3.20;99.90;;;;;;4933653;29;20448;-86
2021/01/20 08:13:43;;;;;;;8.00;5.67;;;3.20;99.90;;;;;;4931897;29;21080;-86
2021/01/20 08:16:09;;;;;;;10.77;5.47;;;3.20;99.90;;;;;;4936243;29;20552;-87
2021/01/20 08:18:36;;;;;;;7.67;5.47;;;3.30;99.90;;;;;;4935755;29;20700;-86
2021/01/20 08:21:11;;;;;;;13.13;5.27;;;3.30;99.90;;;;;;4936411;29;20495;-86
2021/01/20 08:23:55;;;;;;;9.87;5.60;;;3.40;99.90;;;;;;4933111;29;20435;-87
2021/01/20 08:26:26;;;;;;;9.50;4.40;;;3.40;99.90;;;;;;4936695;29;20432;-85
2021/01/20 08:29:12;;;;;;;6.37;5.03;;;3.60;99.90;;;;;;4934858;29;20949;-87
2021/01/20 08:31:42;;;;;;;10.27;5.20;;;3.60;99.90;;;;;;4936484;29;20444;-87
2021/01/20 08:34:21;;;;;;;7.03;4.90;;;3.70;99.90;;;;;;4935029;28;20487;-87
2021/01/20 08:37:00;;;;;;;7.87;5.80;;;3.70;99.90;;;;;;4933113;29;20974;-86
2021/01/20 08:39:27;;;;;;;7.80;5.47;;;3.80;99.90;;;;;;4939897;29;20428;-86
2021/01/20 08:42:18;;;;;;;8.80;4.93;;;3.90;99.90;;;;;;4923037;29;20447;-87
2021/01/20 08:45:06;;;;;;;12.43;5.60;;;3.90;99.90;;;;;;4933146;29;20471;-88
2021/01/20 08:47:51;;;;;;;7.43;5.70;;;4.00;99.90;;;;;;4932739;29;20429;-87
2021/01/20 08:50:29;;;;;;;6.33;5.20;;;4.20;99.90;;;;;;4930013;29;20436;-85
2021/01/20 08:53:03;;;;;;;6.43;5.20;;;4.20;99.90;;;;;;4932535;29;20471;-87
2021/01/20 08:55:40;;;;;;;7.53;5.87;;;4.40;99.90;;;;;;4925347;29;20441;-84
2021/01/20 08:58:26;;;;;;;8.30;4.77;;;4.40;99.90;;;;;;4931261;29;20443;-85
2021/01/20 09:01:04;;;;;;;6.77;5.10;;;4.50;99.90;;;;;;4929738;29;20973;-87
2021/01/20 09:03:32;;;;;;;5.87;4.33;;;4.50;99.90;;;;;;4932512;29;20439;-86
2021/01/20 09:06:00;;;;;;;7.00;5.67;;;4.60;99.90;;;;;;4933615;29;20489;-84
2021/01/20 09:08:27;;;;;;;8.83;5.23;;;4.60;99.90;;;;;;4928553;29;20926;-85
2021/01/20 09:10:54;;;;;;;6.97;4.90;;;4.70;99.90;;;;;;4933026;29;20510;-87
2021/01/20 09:13:21;;;;;;;4.67;4.23;;;4.70;99.90;;;;;;4929016;29;20519;-85
2021/01/20 09:15:49;;;;;;;7.50;5.23;;;4.80;99.90;;;;;;4914573;29;20467;-85
2021/01/20 09:18:15;;;;;;;6.70;4.90;;;4.90;99.90;;;;;;4915132;29;20545;-85
2021/01/20 09:20:41;;;;;;;7.50;4.67;;;5.00;99.90;;;;;;4930443;29;20479;-84
2021/01/20 09:23:07;;;;;;;6.77;5.10;;;5.10;99.90;;;;;;4929863;29;20448;-86
2021/01/20 09:25:33;;;;;;;8.20;5.23;;;5.20;99.90;;;;;;4929099;28;20193;-85
2021/01/20 09:27:59;;;;;;;5.70;5.13;;;5.20;99.90;;;;;;4916605;29;20712;-86
2021/01/20 09:30:25;;;;;;;8.73;5.77;;;5.30;99.90;;;;;;4926237;29;20443;-86
2021/01/20 09:32:51;;;;;;;6.93;5.27;;;5.30;99.90;;;;;;4927649;29;20506;-85
2021/01/20 09:35:18;;;;;;;12.40;5.23;;;5.40;99.90;;;;;;4926854;29;20207;-87
2021/01/20 09:37:47;;;;;;;8.00;5.07;;;5.50;99.90;;;;;;4925779;29;20463;-83
2021/01/20 09:40:14;;;;;;;8.50;6.27;;;5.60;99.90;;;;;;4929416;29;20464;-84
2021/01/20 09:42:41;;;;;;;11.80;5.97;;;5.60;99.90;;;;;;4928599;29;20432;-82
2021/01/20 09:45:10;;;;;;;7.60;5.27;;;5.50;99.90;;;;;;4927469;29;20466;-85
2021/01/20 09:47:40;;;;;;;11.60;5.83;;;5.50;99.90;;;;;;4924977;28;20435;-83
2021/01/20 09:50:08;;;;;;;6.67;4.77;;;5.40;99.90;;;;;;4930966;28;20421;-87
2021/01/20 09:52:34;;;;;;;7.03;5.30;;;5.60;99.90;;;;;;4924280;29;20440;-86
2021/01/20 09:55:00;;;;;;;9.60;5.00;;;5.70;99.90;;;;;;4930145;29;20450;-84
2021/01/20 09:57:26;;;;;;;5.33;4.37;;;5.90;99.90;;;;;;4926505;29;20436;-84
2021/01/20 09:59:52;;;;;;;6.40;5.30;;;6.10;99.90;;;;;;4927627;29;20467;-84
2021/01/20 10:02:18;;;;;;;7.90;5.40;;;6.30;99.90;;;;;;4917470;29;20179;-86
2021/01/20 10:04:45;;;;;;;9.47;5.70;;;6.50;99.90;;;;;;4925714;29;20452;-83
2021/01/20 10:07:12;;;;;;;20.80;9.53;;;6.60;99.90;;;;;;4914076;29;20472;-84
2021/01/20 10:09:38;;;;;;;20.67;9.20;;;6.80;99.90;;;;;;4927567;29;21580;-87
2021/01/20 10:12:06;;;;;;;13.50;7.53;;;6.90;99.90;;;;;;4931170;28;20875;-85
2021/01/20 10:14:32;;;;;;;12.50;7.27;;;7.00;99.90;;;;;;4914181;29;21060;-85
2021/01/20 10:16:58;;;;;;;9.17;5.73;;;7.10;99.90;;;;;;4948520;28;20820;-84
2021/01/20 10:19:24;;;;;;;6.87;4.77;;;7.20;99.90;;;;;;4915885;29;20452;-84
2021/01/20 10:21:52;;;;;;;7.80;5.57;;;7.30;99.90;;;;;;4930575;29;20224;-85
2021/01/20 10:24:18;;;;;;;5.63;4.63;;;7.40;99.90;;;;;;4927728;29;20203;-84
2021/01/20 10:26:44;;;;;;;7.53;5.27;;;7.40;99.90;;;;;;4928878;29;20853;-85
2021/01/20 10:29:10;;;;;;;8.17;6.50;;;7.50;99.90;;;;;;4930544;29;20184;-87
2021/01/20 10:31:37;;;;;;;10.63;6.40;;;7.50;99.90;;;;;;4927516;29;20459;-86
2021/01/20 10:34:04;;;;;;;6.23;5.63;;;7.50;99.90;;;;;;4915032;29;20214;-85
2021/01/20 10:36:30;;;;;;;9.37;6.10;;;7.60;99.90;;;;;;4925955;29;20524;-85
2021/01/20 10:38:57;;;;;;;7.80;5.53;;;7.60;99.90;;;;;;4928515;28;20457;-84
2021/01/20 10:41:23;;;;;;;7.63;4.30;;;7.80;99.90;;;;;;4929497;28;20499;-84
2021/01/20 10:43:52;;;;;;;6.70;5.13;;;7.80;99.90;;;;;;4930286;28;22491;-84
2021/01/20 10:46:21;;;;;;;6.40;4.80;;;7.70;99.90;;;;;;4924857;29;20464;-86
2021/01/20 10:48:49;;;;;;;6.13;4.30;;;7.70;99.90;;;;;;4926339;29;20425;-84
2021/01/20 10:51:15;;;;;;;6.00;4.40;;;8.00;99.90;;;;;;4930055;29;20423;-83
2021/01/20 10:53:40;;;;;;;9.83;4.90;;;8.10;99.90;;;;;;4923884;29;20292;-84
2021/01/20 10:56:07;;;;;;;4.90;4.37;;;8.20;99.90;;;;;;4928155;29;20740;-85
2021/01/20 10:58:33;;;;;;;8.37;4.93;;;8.40;99.90;;;;;;4923198;29;20689;-85
2021/01/20 11:01:00;;;;;;;6.40;4.23;;;8.40;99.90;;;;;;4913711;29;20515;-85
2021/01/20 11:03:25;;;;;;;4.43;3.57;;;8.40;99.90;;;;;;4925777;29;20470;-84
2021/01/20 11:05:51;;;;;;;5.00;3.60;;;8.50;99.90;;;;;;4922222;28;20424;-84
2021/01/20 11:08:17;;;;;;;6.13;4.00;;;8.50;99.90;;;;;;4915956;29;20188;-84
2021/01/20 11:10:43;;;;;;;5.10;3.53;;;8.60;99.90;;;;;;4920457;29;20215;-86
2021/01/20 11:13:15;;;;;;;7.53;4.40;;;8.40;99.90;;;;;;4924298;29;20207;-89
2021/01/20 11:15:51;;;;;;;8.83;4.20;;;8.50;99.90;;;;;;4909105;29;20827;-87
2021/01/20 11:18:20;;;;;;;7.30;4.43;;;8.20;99.90;;;;;;4932669;29;20434;-88
2021/01/20 11:20:54;;;;;;;7.60;4.33;;;8.20;99.90;;;;;;4929240;29;20680;-89
2021/01/20 11:23:26;;;;;;;8.37;4.70;;;8.40;99.90;;;;;;4931671;29;20879;-89
2021/01/20 11:25:53;;;;;;;6.73;4.53;;;8.60;99.90;;;;;;4914602;29;20807;-88
2021/01/20 11:28:19;;;;;;;6.10;3.80;;;8.80;99.90;;;;;;4930468;29;20955;-90
2021/01/20 11:30:55;;;;;;;7.73;3.63;;;8.90;99.90;;;;;;4936554;29;20808;-89
2021/01/20 11:33:27;;;;;;;6.20;4.10;;;9.10;99.90;;;;;;4945027;29;20458;-89
2021/01/20 11:35:55;;;;;;;5.97;3.70;;;9.00;99.90;;;;;;4934038;29;20422;-89
2021/01/20 11:38:31;;;;;;;6.40;3.80;;;9.30;99.90;;;;;;4915665;29;20451;-88
2021/01/20 11:41:00;;;;;;;4.93;3.93;;;9.50;99.90;;;;;;4947018;28;20517;-86
2021/01/20 11:43:29;;;;;;;5.07;3.30;;;9.70;99.90;;;;;;4930529;29;20491;-89
2021/01/20 11:46:05;;;;;;;4.87;4.40;;;9.70;99.90;;;;;;4947448;28;20447;-87
2021/01/20 11:48:31;;;;;;;4.97;3.60;;;9.70;99.90;;;;;;4923672;29;20451;-90
2021/01/20 11:51:01;;;;;;;4.13;3.50;;;9.90;99.90;;;;;;4912347;29;20841;-88
2021/01/20 11:53:26;;;;;;;8.50;4.50;;;9.90;99.90;;;;;;4929581;28;20215;-90
2021/01/20 11:55:52;;;;;;;5.30;3.70;;;10.00;99.90;;;;;;4929773;29;20460;-87
2021/01/20 11:58:18;;;;;;;7.33;5.17;;;10.00;99.90;;;;;;4925679;29;20195;-89
2021/01/20 12:00:44;;;;;;;6.87;4.60;;;10.00;99.90;;;;;;4926083;29;20222;-87
2021/01/20 12:03:15;;;;;;;4.77;3.63;;;10.10;99.90;;;;;;4930343;29;20439;-88
2021/01/20 12:05:44;;;;;;;4.30;3.30;;;10.30;99.90;;;;;;4914443;29;20239;-89
2021/01/20 12:08:10;;;;;;;7.73;4.07;;;10.40;99.90;;;;;;4913456;29;20445;-90
2021/01/20 12:10:38;;;;;;;8.47;4.27;;;10.30;99.90;;;;;;4927718;29;20451;-85
2021/01/20 12:13:04;;;;;;;6.07;3.70;;;10.40;99.90;;;;;;4915734;29;20327;-88
2021/01/20 12:15:30;;;;;;;5.70;4.17;;;10.30;99.90;;;;;;4916370;29;20452;-86
2021/01/20 12:17:59;;;;;;;6.50;4.77;;;10.30;99.90;;;;;;4926050;29;20447;-89
2021/01/20 12:20:25;;;;;;;3.90;3.50;;;10.30;99.90;;;;;;4913852;29;20519;-87
2021/01/20 12:22:51;;;;;;;4.07;3.50;;;10.20;99.90;;;;;;4926893;29;20488;-85
2021/01/20 12:25:17;;;;;;;5.10;4.20;;;10.30;99.90;;;;;;4930549;29;20172;-88
2021/01/20 12:27:44;;;;;;;3.93;3.50;;;10.10;99.90;;;;;;4925456;29;20450;-86
2021/01/20 12:30:17;;;;;;;7.80;5.23;;;10.20;99.90;;;;;;4926746;29;20455;-88
2021/01/20 12:32:46;;;;;;;10.37;4.67;;;10.30;99.90;;;;;;4913937;29;20475;-84
2021/01/20 12:35:14;;;;;;;5.97;4.70;;;10.40;99.90;;;;;;4926178;29;20783;-86
2021/01/20 12:37:39;;;;;;;8.60;4.53;;;10.60;99.90;;;;;;4924592;29;20433;-88
2021/01/20 12:40:12;;;;;;;5.10;3.93;;;10.80;99.90;;;;;;4928923;29;21022;-86
2021/01/20 12:42:37;;;;;;;5.20;3.53;;;10.80;99.90;;;;;;4915845;29;20199;-88
2021/01/20 12:45:04;;;;;;;6.87;4.10;;;10.80;99.90;;;;;;4902293;29;20896;-87
2021/01/20 12:47:29;;;;;;;5.10;3.80;;;10.90;99.90;;;;;;4916385;29;20674;-86
2021/01/20 12:49:55;;;;;;;5.50;4.10;;;10.90;99.90;;;;;;4927196;29;20444;-87
2021/01/20 12:52:21;;;;;;;5.90;3.73;;;11.00;99.90;;;;;;4927416;29;20240;-85
2021/01/20 12:54:53;;;;;;;5.20;3.77;;;10.80;99.90;;;;;;4910193;29;20230;-88
2021/01/20 12:57:23;;;;;;;5.47;4.07;;;10.70;99.90;;;;;;4922754;29;20240;-83
2021/01/20 12:59:49;;;;;;;9.30;5.40;;;10.70;99.90;;;;;;4920906;29;20486;-87
2021/01/20 13:02:15;;;;;;;7.07;4.80;;;10.60;99.90;;;;;;4924958;29;20429;-87
2021/01/20 13:04:41;;;;;;;8.50;5.40;;;10.60;99.90;;;;;;4908433;29;20224;-87
2021/01/20 13:07:15;;;;;;;6.53;4.13;;;10.80;99.90;;;;;;4920563;29;20908;-87
2021/01/20 13:09:41;;;;;;;9.83;4.47;;;10.80;99.90;;;;;;4912696;29;20218;-87
2021/01/20 13:12:07;;;;;;;7.77;5.37;;;10.80;99.90;;;;;;4917682;29;20486;-87
2021/01/20 13:14:33;;;;;;;7.30;5.23;;;10.80;99.90;;;;;;4924683;29;20462;-83
2021/01/20 13:16:59;;;;;;;6.20;4.77;;;10.70;99.90;;;;;;4918335;29;20453;-83
2021/01/20 13:19:26;;;;;;;6.33;5.33;;;10.70;99.90;;;;;;4921180;29;20662;-84
2021/01/20 13:21:54;;;;;;;13.10;5.23;;;10.70;99.90;;;;;;4909448;29;20475;-82
2021/01/20 13:24:21;;;;;;;9.07;5.23;;;10.70;99.90;;;;;;4924616;29;20527;-84
2021/01/20 13:26:47;;;;;;;10.57;4.77;;;10.80;99.90;;;;;;4921899;29;20421;-82
2021/01/20 13:29:13;;;;;;;7.33;4.47;;;10.80;99.90;;;;;;4922209;29;20825;-83
2021/01/20 13:31:39;;;;;;;12.87;4.60;;;11.00;99.90;;;;;;4928793;29;20432;-83
2021/01/20 13:34:05;;;;;;;5.43;4.20;;;11.00;99.90;;;;;;4910843;29;20607;-82
2021/01/20 13:36:32;;;;;;;6.87;4.70;;;11.10;99.90;;;;;;4912272;29;20283;-86
2021/01/20 13:39:01;;;;;;;6.13;4.17;;;11.30;99.90;;;;;;4928123;29;20219;-83
2021/01/20 13:41:27;;;;;;;5.87;4.57;;;11.30;99.90;;;;;;4922766;29;20559;-84
2021/01/20 13:43:55;;;;;;;7.83;5.33;;;11.30;99.90;;;;;;4919311;29;20563;-82
2021/01/20 13:46:21;;;;;;;7.90;4.40;;;11.30;99.90;;;;;;4948363;28;20184;-82
2021/01/20 13:48:46;;;;;;;8.20;3.90;;;11.00;99.90;;;;;;4927805;29;20511;-82
2021/01/20 13:51:12;;;;;;;7.47;4.93;;;11.10;99.90;;;;;;4929383;29;20203;-83
2021/01/20 13:53:38;;;;;;;6.10;5.07;;;11.20;99.90;;;;;;4912959;29;20243;-83
2021/01/20 13:56:04;;;;;;;6.40;4.30;;;11.20;99.90;;;;;;4927400;29;20990;-82
2021/01/20 13:58:29;;;;;;;7.70;3.97;;;11.00;99.90;;;;;;4921987;29;20204;-83
2021/01/20 14:00:55;;;;;;;7.30;4.53;;;10.90;99.90;;;;;;4924103;29;20475;-82
2021/01/20 14:03:21;;;;;;;4.70;3.80;;;11.00;99.90;;;;;;4915343;29;20616;-83
2021/01/20 14:05:47;;;;;;;5.67;4.60;;;11.10;99.90;;;;;;4926929;29;20238;-84
2021/01/20 14:08:12;;;;;;;4.93;3.37;;;11.00;99.90;;;;;;4922518;29;20281;-83
2021/01/20 14:10:38;;;;;;;5.60;3.63;;;11.00;99.90;;;;;;4919344;29;20203;-84
2021/01/20 14:13:04;;;;;;;5.13;4.03;;;11.00;99.90;;;;;;4924883;29;20297;-84
2021/01/20 14:15:29;;;;;;;5.00;3.67;;;11.10;99.90;;;;;;4908590;29;20585;-83
2021/01/20 14:17:55;;;;;;;5.90;4.30;;;11.10;99.90;;;;;;4919645;29;20207;-84
2021/01/20 14:20:21;;;;;;;4.30;3.87;;;11.10;99.90;;;;;;4910640;29;20320;-84